Terminal Aerodrome Forecast
Issued by NWS Kansas City/Pleasant Hill, MO

Home | Current Version | Previous Version | Text Only | Print | Product List | Glossary On
Versions: 1 2 3 4 5 6 7 8 9 10 11 12 13 14
348
FTUS43 KEAX 032328
TAFMCI
TAF
KMCI 032328Z 0400/0424 10007KT P6SM VCSH OVC050
     FM040400 14006KT 4SM -RA OVC015
     FM041000 18005KT 3SM -RA OVC003
     FM041500 23005KT P6SM OVC008
     FM041800 27008KT P6SM SCT060=

USA.gov is the U.S. government's official web portal to all federal, state and local government web resources and services.